sensor_id;sensor_type;location;lat;lon;timestamp;P1;durP1;ratioP1;P2;durP2;ratioP2
22435;SDS011;11385;50.822;4.324;2022-11-20T00:00:04;53.42;;;31.40;;
22435;SDS011;11385;50.822;4.324;2022-11-20T00:02:31;50.73;;;30.90;;
22435;SDS011;11385;50.822;4.324;2022-11-20T00:04:58;55.58;;;32.85;;
22435;SDS011;11385;50.822;4.324;2022-11-20T00:07:24;53.58;;;32.15;;
22435;SDS011;11385;50.822;4.324;2022-11-20T00:09:51;60.05;;;33.70;;
22435;SDS011;11385;50.822;4.324;2022-11-20T00:12:17;55.85;;;32.63;;
22435;SDS011;11385;50.822;4.324;2022-11-20T00:14:44;55.90;;;32.60;;
22435;SDS011;11385;50.822;4.324;2022-11-20T00:17:11;48.85;;;32.53;;
22435;SDS011;11385;50.822;4.324;2022-11-20T00:19:37;53.20;;;32.65;;
22435;SDS011;11385;50.822;4.324;2022-11-20T00:22:04;59.08;;;33.28;;
22435;SDS011;11385;50.822;4.324;2022-11-20T00:24:30;54.90;;;32.45;;
22435;SDS011;11385;50.822;4.324;2022-11-20T00:26:58;53.23;;;31.50;;
22435;SDS011;11385;50.822;4.324;2022-11-20T00:29:24;54.50;;;32.50;;
22435;SDS011;11385;50.822;4.324;2022-11-20T00:31:51;53.92;;;34.30;;
22435;SDS011;11385;50.822;4.324;2022-11-20T00:34:18;59.88;;;34.50;;
22435;SDS011;11385;50.822;4.324;2022-11-20T00:36:44;59.05;;;34.83;;
22435;SDS011;11385;50.822;4.324;2022-11-20T00:39:11;57.55;;;33.33;;
22435;SDS011;11385;50.822;4.324;2022-11-20T00:41:38;62.73;;;33.70;;
22435;SDS011;11385;50.822;4.324;2022-11-20T00:44:04;57.58;;;34.95;;
22435;SDS011;11385;50.822;4.324;2022-11-20T00:46:31;61.80;;;32.80;;
22435;SDS011;11385;50.822;4.324;2022-11-20T00:48:58;58.65;;;33.02;;
22435;SDS011;11385;50.822;4.324;2022-11-20T00:51:25;56.75;;;33.53;;
22435;SDS011;11385;50.822;4.324;2022-11-20T00:53:56;56.58;;;33.05;;
22435;SDS011;11385;50.822;4.324;2022-11-20T00:56:25;54.98;;;32.63;;
22435;SDS011;11385;50.822;4.324;2022-11-20T00:58:52;58.25;;;32.90;;
22435;SDS011;11385;50.822;4.324;2022-11-20T01:01:20;64.32;;;32.55;;
22435;SDS011;11385;50.822;4.324;2022-11-20T01:03:50;56.20;;;32.98;;
22435;SDS011;11385;50.822;4.324;2022-11-20T01:06:20;55.45;;;32.83;;
22435;SDS011;11385;50.822;4.324;2022-11-20T01:08:49;56.83;;;31.83;;
22435;SDS011;11385;50.822;4.324;2022-11-20T01:11:18;59.25;;;33.35;;
22435;SDS011;11385;50.822;4.324;2022-11-20T01:13:47;54.05;;;32.48;;
22435;SDS011;11385;50.822;4.324;2022-11-20T01:16:16;53.65;;;32.70;;
22435;SDS011;11385;50.822;4.324;2022-11-20T01:18:46;55.90;;;32.70;;
22435;SDS011;11385;50.822;4.324;2022-11-20T01:21:16;55.58;;;32.80;;
22435;SDS011;11385;50.822;4.324;2022-11-20T01:23:45;53.48;;;32.50;;
22435;SDS011;11385;50.822;4.324;2022-11-20T01:26:14;52.95;;;32.08;;
22435;SDS011;11385;50.822;4.324;2022-11-20T01:28:43;53.87;;;31.20;;
22435;SDS011;11385;50.822;4.324;2022-11-20T01:31:13;59.42;;;34.50;;
22435;SDS011;11385;50.822;4.324;2022-11-20T01:33:43;52.65;;;31.80;;
22435;SDS011;11385;50.822;4.324;2022-11-20T01:36:11;54.90;;;31.30;;
22435;SDS011;11385;50.822;4.324;2022-11-20T01:38:39;53.30;;;31.82;;
22435;SDS011;11385;50.822;4.324;2022-11-20T01:41:08;58.87;;;32.63;;
22435;SDS011;11385;50.822;4.324;2022-11-20T01:43:35;59.67;;;32.55;;
22435;SDS011;11385;50.822;4.324;2022-11-20T01:46:04;54.60;;;31.82;;
22435;SDS011;11385;50.822;4.324;2022-11-20T01:48:38;47.35;;;25.40;;
22435;SDS011;11385;50.822;4.324;2022-11-20T01:51:10;58.25;;;33.25;;
22435;SDS011;11385;50.822;4.324;2022-11-20T01:53:37;61.50;;;33.83;;
22435;SDS011;11385;50.822;4.324;2022-11-20T01:56:05;56.48;;;34.45;;
22435;SDS011;11385;50.822;4.324;2022-11-20T01:58:36;56.48;;;32.88;;
22435;SDS011;11385;50.822;4.324;2022-11-20T02:01:05;57.00;;;33.40;;
22435;SDS011;11385;50.822;4.324;2022-11-20T02:03:32;56.28;;;32.48;;
22435;SDS011;11385;50.822;4.324;2022-11-20T02:06:06;61.48;;;32.73;;
22435;SDS011;11385;50.822;4.324;2022-11-20T02:08:38;58.23;;;32.13;;
22435;SDS011;11385;50.822;4.324;2022-11-20T02:11:06;52.10;;;30.35;;
22435;SDS011;11385;50.822;4.324;2022-11-20T02:13:33;57.35;;;30.15;;
22435;SDS011;11385;50.822;4.324;2022-11-20T02:16:08;54.63;;;31.65;;
22435;SDS011;11385;50.822;4.324;2022-11-20T02:18:36;56.23;;;31.83;;
22435;SDS011;11385;50.822;4.324;2022-11-20T02:21:06;54.48;;;29.50;;
22435;SDS011;11385;50.822;4.324;2022-11-20T02:23:39;60.92;;;31.73;;
22435;SDS011;11385;50.822;4.324;2022-11-20T02:26:09;57.03;;;31.97;;
22435;SDS011;11385;50.822;4.324;2022-11-20T02:28:38;55.70;;;32.48;;
22435;SDS011;11385;50.822;4.324;2022-11-20T02:31:05;54.58;;;31.20;;
22435;SDS011;11385;50.822;4.324;2022-11-20T02:33:32;56.40;;;31.65;;
22435;SDS011;11385;50.822;4.324;2022-11-20T02:35:58;61.73;;;31.65;;
22435;SDS011;11385;50.822;4.324;2022-11-20T02:38:25;57.50;;;30.70;;
22435;SDS011;11385;50.822;4.324;2022-11-20T02:40:52;60.17;;;33.30;;
22435;SDS011;11385;50.822;4.324;2022-11-20T02:43:18;61.20;;;32.20;;
22435;SDS011;11385;50.822;4.324;2022-11-20T02:45:45;60.00;;;33.18;;
22435;SDS011;11385;50.822;4.324;2022-11-20T02:48:12;59.20;;;32.58;;
22435;SDS011;11385;50.822;4.324;2022-11-20T02:50:39;60.45;;;31.55;;
22435;SDS011;11385;50.822;4.324;2022-11-20T02:53:05;62.03;;;33.85;;
22435;SDS011;11385;50.822;4.324;2022-11-20T02:55:32;58.15;;;30.45;;
22435;SDS011;11385;50.822;4.324;2022-11-20T02:57:59;57.58;;;31.12;;
22435;SDS011;11385;50.822;4.324;2022-11-20T03:00:26;64.60;;;32.70;;
22435;SDS011;11385;50.822;4.324;2022-11-20T03:02:52;58.30;;;31.95;;
22435;SDS011;11385;50.822;4.324;2022-11-20T03:05:19;58.80;;;31.57;;
22435;SDS011;11385;50.822;4.324;2022-11-20T03:07:47;55.30;;;30.25;;
22435;SDS011;11385;50.822;4.324;2022-11-20T03:10:13;56.28;;;31.12;;
22435;SDS011;11385;50.822;4.324;2022-11-20T03:12:40;58.40;;;29.92;;
22435;SDS011;11385;50.822;4.324;2022-11-20T03:15:07;60.35;;;30.90;;
22435;SDS011;11385;50.822;4.324;2022-11-20T03:17:34;55.55;;;30.60;;
22435;SDS011;11385;50.822;4.324;2022-11-20T03:20:00;56.13;;;28.52;;
22435;SDS011;11385;50.822;4.324;2022-11-20T03:22:28;57.60;;;30.17;;
22435;SDS011;11385;50.822;4.324;2022-11-20T03:24:55;55.40;;;29.72;;
22435;SDS011;11385;50.822;4.324;2022-11-20T03:27:22;54.18;;;29.75;;
22435;SDS011;11385;50.822;4.324;2022-11-20T03:29:49;58.60;;;29.98;;
22435;SDS011;11385;50.822;4.324;2022-11-20T03:32:15;63.20;;;33.65;;
22435;SDS011;11385;50.822;4.324;2022-11-20T03:34:42;54.77;;;27.30;;
22435;SDS011;11385;50.822;4.324;2022-11-20T03:37:08;50.73;;;28.95;;
22435;SDS011;11385;50.822;4.324;2022-11-20T03:39:35;51.05;;;27.62;;
22435;SDS011;11385;50.822;4.324;2022-11-20T03:42:02;48.28;;;27.20;;
22435;SDS011;11385;50.822;4.324;2022-11-20T03:44:30;54.20;;;28.65;;
22435;SDS011;11385;50.822;4.324;2022-11-20T03:46:58;55.75;;;28.10;;
22435;SDS011;11385;50.822;4.324;2022-11-20T03:49:24;47.88;;;26.82;;
22435;SDS011;11385;50.822;4.324;2022-11-20T03:51:51;49.53;;;27.90;;
22435;SDS011;11385;50.822;4.324;2022-11-20T03:54:17;52.30;;;27.13;;
22435;SDS011;11385;50.822;4.324;2022-11-20T03:56:44;50.55;;;27.58;;
22435;SDS011;11385;50.822;4.324;2022-11-20T03:59:11;53.75;;;26.57;;
22435;SDS011;11385;50.822;4.324;2022-11-20T04:01:37;50.17;;;26.37;;
22435;SDS011;11385;50.822;4.324;2022-11-20T04:04:04;52.65;;;26.23;;
22435;SDS011;11385;50.822;4.324;2022-11-20T04:06:34;49.65;;;26.37;;
22435;SDS011;11385;50.822;4.324;2022-11-20T04:11:30;50.23;;;27.27;;
22435;SDS011;11385;50.822;4.324;2022-11-20T04:13:59;50.25;;;26.75;;
22435;SDS011;11385;50.822;4.324;2022-11-20T04:16:29;51.08;;;27.37;;
22435;SDS011;11385;50.822;4.324;2022-11-20T04:18:58;54.23;;;27.55;;
22435;SDS011;11385;50.822;4.324;2022-11-20T04:21:26;51.68;;;26.33;;
22435;SDS011;11385;50.822;4.324;2022-11-20T04:23:53;52.03;;;27.02;;
22435;SDS011;11385;50.822;4.324;2022-11-20T04:26:20;57.75;;;29.20;;
22435;SDS011;11385;50.822;4.324;2022-11-20T04:28:49;58.65;;;28.30;;
22435;SDS011;11385;50.822;4.324;2022-11-20T04:31:16;55.55;;;27.98;;
22435;SDS011;11385;50.822;4.324;2022-11-20T04:33:45;59.77;;;29.25;;
22435;SDS011;11385;50.822;4.324;2022-11-20T04:36:14;58.78;;;29.35;;
22435;SDS011;11385;50.822;4.324;2022-11-20T04:38:43;60.00;;;29.92;;
22435;SDS011;11385;50.822;4.324;2022-11-20T04:41:18;59.03;;;31.00;;
22435;SDS011;11385;50.822;4.324;2022-11-20T04:43:46;62.30;;;31.50;;
22435;SDS011;11385;50.822;4.324;2022-11-20T04:46:14;65.67;;;30.65;;
22435;SDS011;11385;50.822;4.324;2022-11-20T04:48:42;71.12;;;31.73;;
22435;SDS011;11385;50.822;4.324;2022-11-20T04:51:09;65.30;;;30.00;;
22435;SDS011;11385;50.822;4.324;2022-11-20T04:53:36;68.97;;;32.90;;
22435;SDS011;11385;50.822;4.324;2022-11-20T04:56:04;67.22;;;30.95;;
22435;SDS011;11385;50.822;4.324;2022-11-20T04:58:33;58.10;;;29.92;;
22435;SDS011;11385;50.822;4.324;2022-11-20T05:01:18;64.85;;;31.17;;
22435;SDS011;11385;50.822;4.324;2022-11-20T05:03:46;72.08;;;32.05;;
22435;SDS011;11385;50.822;4.324;2022-11-20T05:06:14;71.40;;;31.62;;
22435;SDS011;11385;50.822;4.324;2022-11-20T05:08:42;70.40;;;31.65;;
22435;SDS011;11385;50.822;4.324;2022-11-20T05:11:09;70.08;;;32.13;;
22435;SDS011;11385;50.822;4.324;2022-11-20T05:13:38;69.15;;;32.53;;
22435;SDS011;11385;50.822;4.324;2022-11-20T05:16:06;65.83;;;31.57;;
22435;SDS011;11385;50.822;4.324;2022-11-20T05:18:35;68.15;;;32.58;;
22435;SDS011;11385;50.822;4.324;2022-11-20T05:21:03;66.42;;;31.02;;
22435;SDS011;11385;50.822;4.324;2022-11-20T05:23:30;75.47;;;32.35;;
22435;SDS011;11385;50.822;4.324;2022-11-20T05:25:58;71.47;;;32.90;;
22435;SDS011;11385;50.822;4.324;2022-11-20T05:28:25;75.47;;;33.42;;
22435;SDS011;11385;50.822;4.324;2022-11-20T05:36:23;73.02;;;32.42;;
22435;SDS011;11385;50.822;4.324;2022-11-20T05:38:50;74.45;;;30.80;;
22435;SDS011;11385;50.822;4.324;2022-11-20T05:41:17;74.10;;;33.67;;
22435;SDS011;11385;50.822;4.324;2022-11-20T05:43:45;78.87;;;34.83;;
22435;SDS011;11385;50.822;4.324;2022-11-20T05:46:13;71.20;;;32.70;;
22435;SDS011;11385;50.822;4.324;2022-11-20T05:48:41;82.20;;;34.55;;
22435;SDS011;11385;50.822;4.324;2022-11-20T05:51:10;75.22;;;32.63;;
22435;SDS011;11385;50.822;4.324;2022-11-20T05:53:38;77.32;;;33.28;;
22435;SDS011;11385;50.822;4.324;2022-11-20T05:56:06;77.97;;;34.10;;
22435;SDS011;11385;50.822;4.324;2022-11-20T05:58:36;73.53;;;33.17;;
22435;SDS011;11385;50.822;4.324;2022-11-20T06:01:06;74.65;;;33.75;;
22435;SDS011;11385;50.822;4.324;2022-11-20T06:03:36;76.90;;;33.05;;
22435;SDS011;11385;50.822;4.324;2022-11-20T06:06:04;74.97;;;34.30;;
22435;SDS011;11385;50.822;4.324;2022-11-20T06:08:31;74.25;;;33.92;;
22435;SDS011;11385;50.822;4.324;2022-11-20T06:11:02;75.42;;;33.23;;
22435;SDS011;11385;50.822;4.324;2022-11-20T06:13:31;74.77;;;32.28;;
22435;SDS011;11385;50.822;4.324;2022-11-20T06:15:58;74.90;;;33.00;;
22435;SDS011;11385;50.822;4.324;2022-11-20T06:18:25;75.67;;;32.80;;
22435;SDS011;11385;50.822;4.324;2022-11-20T06:23:28;72.67;;;31.68;;
22435;SDS011;11385;50.822;4.324;2022-11-20T06:25:56;72.53;;;32.67;;
22435;SDS011;11385;50.822;4.324;2022-11-20T06:28:22;66.90;;;30.23;;
22435;SDS011;11385;50.822;4.324;2022-11-20T06:30:49;67.92;;;32.13;;
22435;SDS011;11385;50.822;4.324;2022-11-20T06:33:16;70.55;;;32.53;;
22435;SDS011;11385;50.822;4.324;2022-11-20T06:35:42;75.83;;;33.33;;
22435;SDS011;11385;50.822;4.324;2022-11-20T06:38:09;67.40;;;31.02;;
22435;SDS011;11385;50.822;4.324;2022-11-20T06:40:35;68.10;;;31.35;;
22435;SDS011;11385;50.822;4.324;2022-11-20T06:43:04;69.67;;;31.52;;
22435;SDS011;11385;50.822;4.324;2022-11-20T06:45:31;71.87;;;32.73;;
22435;SDS011;11385;50.822;4.324;2022-11-20T06:47:58;66.72;;;31.48;;
22435;SDS011;11385;50.822;4.324;2022-11-20T06:50:24;66.02;;;31.48;;
22435;SDS011;11385;50.822;4.324;2022-11-20T06:52:51;63.15;;;29.75;;
22435;SDS011;11385;50.822;4.324;2022-11-20T06:55:18;69.55;;;32.10;;
22435;SDS011;11385;50.822;4.324;2022-11-20T06:57:44;72.70;;;31.27;;
22435;SDS011;11385;50.822;4.324;2022-11-20T07:00:11;61.48;;;30.45;;
22435;SDS011;11385;50.822;4.324;2022-11-20T07:02:39;71.80;;;31.87;;
22435;SDS011;11385;50.822;4.324;2022-11-20T07:05:05;66.60;;;30.48;;
22435;SDS011;11385;50.822;4.324;2022-11-20T07:07:32;74.40;;;31.62;;
22435;SDS011;11385;50.822;4.324;2022-11-20T07:09:59;72.22;;;31.73;;
22435;SDS011;11385;50.822;4.324;2022-11-20T07:12:25;60.70;;;29.27;;
22435;SDS011;11385;50.822;4.324;2022-11-20T07:14:52;59.38;;;29.72;;
22435;SDS011;11385;50.822;4.324;2022-11-20T07:17:18;64.80;;;29.55;;
22435;SDS011;11385;50.822;4.324;2022-11-20T07:19:45;60.00;;;28.60;;
22435;SDS011;11385;50.822;4.324;2022-11-20T07:22:12;63.45;;;29.15;;
22435;SDS011;11385;50.822;4.324;2022-11-20T07:24:39;65.25;;;30.97;;
22435;SDS011;11385;50.822;4.324;2022-11-20T07:27:05;59.83;;;28.57;;
22435;SDS011;11385;50.822;4.324;2022-11-20T07:29:32;56.68;;;28.95;;
22435;SDS011;11385;50.822;4.324;2022-11-20T07:31:59;55.05;;;26.17;;
22435;SDS011;11385;50.822;4.324;2022-11-20T07:34:25;57.08;;;27.48;;
22435;SDS011;11385;50.822;4.324;2022-11-20T07:36:52;56.60;;;28.02;;
22435;SDS011;11385;50.822;4.324;2022-11-20T07:39:18;54.73;;;25.80;;
22435;SDS011;11385;50.822;4.324;2022-11-20T07:41:45;66.87;;;28.27;;
22435;SDS011;11385;50.822;4.324;2022-11-20T07:44:12;56.85;;;27.00;;
22435;SDS011;11385;50.822;4.324;2022-11-20T07:46:38;62.78;;;28.83;;
22435;SDS011;11385;50.822;4.324;2022-11-20T07:49:05;62.90;;;27.98;;
22435;SDS011;11385;50.822;4.324;2022-11-20T07:51:32;66.50;;;27.98;;
22435;SDS011;11385;50.822;4.324;2022-11-20T07:53:59;61.28;;;27.93;;
22435;SDS011;11385;50.822;4.324;2022-11-20T07:56:25;63.87;;;27.37;;
22435;SDS011;11385;50.822;4.324;2022-11-20T07:58:52;60.95;;;26.37;;
22435;SDS011;11385;50.822;4.324;2022-11-20T08:01:19;54.35;;;26.02;;
22435;SDS011;11385;50.822;4.324;2022-11-20T08:03:45;59.03;;;27.13;;
22435;SDS011;11385;50.822;4.324;2022-11-20T08:06:12;54.85;;;25.65;;
22435;SDS011;11385;50.822;4.324;2022-11-20T08:08:40;62.43;;;27.55;;
22435;SDS011;11385;50.822;4.324;2022-11-20T08:11:06;57.27;;;25.97;;
22435;SDS011;11385;50.822;4.324;2022-11-20T08:13:39;57.20;;;25.45;;
22435;SDS011;11385;50.822;4.324;2022-11-20T08:16:12;56.13;;;25.72;;
22435;SDS011;11385;50.822;4.324;2022-11-20T08:18:38;59.75;;;26.60;;
22435;SDS011;11385;50.822;4.324;2022-11-20T08:21:05;57.20;;;26.45;;
22435;SDS011;11385;50.822;4.324;2022-11-20T08:23:32;50.33;;;26.15;;
22435;SDS011;11385;50.822;4.324;2022-11-20T08:25:59;56.63;;;25.97;;
22435;SDS011;11385;50.822;4.324;2022-11-20T08:28:25;55.45;;;25.88;;
22435;SDS011;11385;50.822;4.324;2022-11-20T08:30:56;55.25;;;27.17;;
22435;SDS011;11385;50.822;4.324;2022-11-20T08:33:24;58.40;;;26.37;;
22435;SDS011;11385;50.822;4.324;2022-11-20T08:35:51;60.35;;;28.20;;
22435;SDS011;11385;50.822;4.324;2022-11-20T08:38:18;76.17;;;38.70;;
22435;SDS011;11385;50.822;4.324;2022-11-20T08:40:44;60.48;;;27.07;;
22435;SDS011;11385;50.822;4.324;2022-11-20T08:43:13;61.65;;;27.48;;
22435;SDS011;11385;50.822;4.324;2022-11-20T08:45:39;60.88;;;26.97;;
22435;SDS011;11385;50.822;4.324;2022-11-20T08:48:06;59.80;;;26.45;;
22435;SDS011;11385;50.822;4.324;2022-11-20T08:50:33;54.75;;;25.75;;
22435;SDS011;11385;50.822;4.324;2022-11-20T08:53:04;55.50;;;25.45;;
22435;SDS011;11385;50.822;4.324;2022-11-20T08:55:31;59.93;;;27.50;;
22435;SDS011;11385;50.822;4.324;2022-11-20T08:58:03;68.10;;;34.27;;
22435;SDS011;11385;50.822;4.324;2022-11-20T09:00:31;55.67;;;26.57;;
22435;SDS011;11385;50.822;4.324;2022-11-20T09:02:58;54.45;;;25.23;;
22435;SDS011;11385;50.822;4.324;2022-11-20T09:05:26;52.27;;;26.12;;
22435;SDS011;11385;50.822;4.324;2022-11-20T09:07:56;52.78;;;25.50;;
22435;SDS011;11385;50.822;4.324;2022-11-20T09:10:23;51.23;;;25.48;;
22435;SDS011;11385;50.822;4.324;2022-11-20T09:12:51;48.87;;;25.12;;
22435;SDS011;11385;50.822;4.324;2022-11-20T09:15:18;67.32;;;36.77;;
22435;SDS011;11385;50.822;4.324;2022-11-20T09:17:52;41.85;;;23.25;;
22435;SDS011;11385;50.822;4.324;2022-11-20T09:20:21;42.40;;;23.60;;
22435;SDS011;11385;50.822;4.324;2022-11-20T09:22:48;51.42;;;24.47;;
22435;SDS011;11385;50.822;4.324;2022-11-20T09:25:15;48.50;;;23.40;;
22435;SDS011;11385;50.822;4.324;2022-11-20T09:27:42;44.85;;;22.58;;
22435;SDS011;11385;50.822;4.324;2022-11-20T09:30:11;47.60;;;23.05;;
22435;SDS011;11385;50.822;4.324;2022-11-20T09:32:39;46.37;;;22.87;;
22435;SDS011;11385;50.822;4.324;2022-11-20T09:35:06;46.53;;;23.35;;
22435;SDS011;11385;50.822;4.324;2022-11-20T09:37:33;46.80;;;24.10;;
22435;SDS011;11385;50.822;4.324;2022-11-20T09:40:00;43.87;;;23.15;;
22435;SDS011;11385;50.822;4.324;2022-11-20T09:42:32;41.75;;;22.20;;
22435;SDS011;11385;50.822;4.324;2022-11-20T09:45:03;42.80;;;22.73;;
22435;SDS011;11385;50.822;4.324;2022-11-20T09:47:38;42.67;;;22.50;;
22435;SDS011;11385;50.822;4.324;2022-11-20T09:50:23;40.87;;;21.37;;
22435;SDS011;11385;50.822;4.324;2022-11-20T09:53:01;40.60;;;19.92;;
22435;SDS011;11385;50.822;4.324;2022-11-20T09:55:32;33.95;;;19.45;;
22435;SDS011;11385;50.822;4.324;2022-11-20T09:58:01;33.95;;;18.80;;
22435;SDS011;11385;50.822;4.324;2022-11-20T10:00:34;36.58;;;18.57;;
22435;SDS011;11385;50.822;4.324;2022-11-20T10:05:45;29.18;;;15.90;;
22435;SDS011;11385;50.822;4.324;2022-11-20T10:08:18;30.50;;;15.75;;
22435;SDS011;11385;50.822;4.324;2022-11-20T10:10:53;35.85;;;18.82;;
22435;SDS011;11385;50.822;4.324;2022-11-20T10:13:26;28.90;;;15.93;;
22435;SDS011;11385;50.822;4.324;2022-11-20T10:19:01;21.35;;;10.63;;
22435;SDS011;11385;50.822;4.324;2022-11-20T10:21:57;19.57;;;10.13;;
22435;SDS011;11385;50.822;4.324;2022-11-20T10:28:01;19.57;;;8.08;;
22435;SDS011;11385;50.822;4.324;2022-11-20T10:30:13;15.60;;;8.30;;
22435;SDS011;11385;50.822;4.324;2022-11-20T10:32:43;17.27;;;8.30;;
22435;SDS011;11385;50.822;4.324;2022-11-20T10:35:18;18.30;;;8.05;;
22435;SDS011;11385;50.822;4.324;2022-11-20T10:37:49;14.65;;;8.23;;
22435;SDS011;11385;50.822;4.324;2022-11-20T10:43:09;14.80;;;7.08;;
22435;SDS011;11385;50.822;4.324;2022-11-20T10:45:47;14.73;;;6.62;;
22435;SDS011;11385;50.822;4.324;2022-11-20T10:48:24;15.15;;;6.70;;
22435;SDS011;11385;50.822;4.324;2022-11-20T10:50:59;15.53;;;7.58;;
22435;SDS011;11385;50.822;4.324;2022-11-20T10:53:33;11.50;;;5.60;;
22435;SDS011;11385;50.822;4.324;2022-11-20T10:56:16;19.37;;;14.13;;
22435;SDS011;11385;50.822;4.324;2022-11-20T10:58:52;33.35;;;22.27;;
22435;SDS011;11385;50.822;4.324;2022-11-20T11:01:39;12.63;;;6.00;;
22435;SDS011;11385;50.822;4.324;2022-11-20T11:04:07;10.88;;;4.83;;
22435;SDS011;11385;50.822;4.324;2022-11-20T11:09:12;11.22;;;4.58;;
22435;SDS011;11385;50.822;4.324;2022-11-20T11:11:41;14.87;;;10.32;;
22435;SDS011;11385;50.822;4.324;2022-11-20T11:14:13;10.68;;;4.37;;
22435;SDS011;11385;50.822;4.324;2022-11-20T11:19:17;10.28;;;4.42;;
22435;SDS011;11385;50.822;4.324;2022-11-20T11:21:47;9.98;;;4.28;;
22435;SDS011;11385;50.822;4.324;2022-11-20T11:24:23;12.60;;;4.08;;
22435;SDS011;11385;50.822;4.324;2022-11-20T11:29:20;10.08;;;4.00;;
22435;SDS011;11385;50.822;4.324;2022-11-20T11:31:47;7.85;;;3.40;;
22435;SDS011;11385;50.822;4.324;2022-11-20T11:34:14;12.60;;;4.08;;
22435;SDS011;11385;50.822;4.324;2022-11-20T11:36:49;8.20;;;3.72;;
22435;SDS011;11385;50.822;4.324;2022-11-20T11:39:16;9.28;;;3.87;;
22435;SDS011;11385;50.822;4.324;2022-11-20T11:41:45;11.70;;;4.25;;
22435;SDS011;11385;50.822;4.324;2022-11-20T11:44:16;12.45;;;4.22;;
22435;SDS011;11385;50.822;4.324;2022-11-20T11:46:52;10.98;;;4.87;;
22435;SDS011;11385;50.822;4.324;2022-11-20T11:49:21;9.25;;;4.12;;
22435;SDS011;11385;50.822;4.324;2022-11-20T11:54:53;10.75;;;3.58;;
22435;SDS011;11385;50.822;4.324;2022-11-20T11:57:34;7.58;;;3.60;;
22435;SDS011;11385;50.822;4.324;2022-11-20T12:00:20;10.75;;;3.05;;
22435;SDS011;11385;50.822;4.324;2022-11-20T12:03:21;13.30;;;3.75;;
22435;SDS011;11385;50.822;4.324;2022-11-20T12:05:40;7.53;;;2.87;;
22435;SDS011;11385;50.822;4.324;2022-11-20T12:08:14;11.70;;;3.60;;
22435;SDS011;11385;50.822;4.324;2022-11-20T12:13:40;6.75;;;3.22;;
22435;SDS011;11385;50.822;4.324;2022-11-20T12:16:10;7.08;;;3.12;;
22435;SDS011;11385;50.822;4.324;2022-11-20T12:18:39;12.95;;;4.00;;
22435;SDS011;11385;50.822;4.324;2022-11-20T12:21:12;14.80;;;4.17;;
22435;SDS011;11385;50.822;4.324;2022-11-20T12:29:15;7.53;;;3.22;;
22435;SDS011;11385;50.822;4.324;2022-11-20T12:32:06;10.80;;;3.90;;
22435;SDS011;11385;50.822;4.324;2022-11-20T12:37:18;7.12;;;3.33;;
22435;SDS011;11385;50.822;4.324;2022-11-20T12:39:49;10.15;;;3.65;;
22435;SDS011;11385;50.822;4.324;2022-11-20T12:42:22;12.65;;;3.98;;
22435;SDS011;11385;50.822;4.324;2022-11-20T12:45:06;6.47;;;3.70;;
22435;SDS011;11385;50.822;4.324;2022-11-20T12:48:45;7.37;;;3.85;;
22435;SDS011;11385;50.822;4.324;2022-11-20T12:50:46;10.90;;;4.22;;
22435;SDS011;11385;50.822;4.324;2022-11-20T12:53:25;10.08;;;4.00;;
22435;SDS011;11385;50.822;4.324;2022-11-20T12:56:05;13.35;;;4.35;;
22435;SDS011;11385;50.822;4.324;2022-11-20T12:58:43;11.90;;;3.75;;
22435;SDS011;11385;50.822;4.324;2022-11-20T13:06:44;12.23;;;5.53;;
22435;SDS011;11385;50.822;4.324;2022-11-20T13:09:13;9.98;;;4.70;;
22435;SDS011;11385;50.822;4.324;2022-11-20T13:11:45;8.50;;;4.10;;
22435;SDS011;11385;50.822;4.324;2022-11-20T13:17:00;10.18;;;4.95;;
22435;SDS011;11385;50.822;4.324;2022-11-20T13:19:29;6.12;;;3.87;;
22435;SDS011;11385;50.822;4.324;2022-11-20T13:21:56;10.00;;;4.60;;
22435;SDS011;11385;50.822;4.324;2022-11-20T13:24:24;11.48;;;4.40;;
22435;SDS011;11385;50.822;4.324;2022-11-20T13:29:31;6.22;;;3.83;;
22435;SDS011;11385;50.822;4.324;2022-11-20T13:32:02;7.40;;;4.12;;
22435;SDS011;11385;50.822;4.324;2022-11-20T13:34:35;8.30;;;3.62;;
22435;SDS011;11385;50.822;4.324;2022-11-20T13:37:01;6.08;;;3.77;;
22435;SDS011;11385;50.822;4.324;2022-11-20T13:39:30;7.70;;;3.55;;
22435;SDS011;11385;50.822;4.324;2022-11-20T13:42:00;7.22;;;3.42;;
22435;SDS011;11385;50.822;4.324;2022-11-20T13:44:33;7.17;;;3.75;;
22435;SDS011;11385;50.822;4.324;2022-11-20T13:47:03;9.98;;;4.05;;
22435;SDS011;11385;50.822;4.324;2022-11-20T13:49:31;5.50;;;2.83;;
22435;SDS011;11385;50.822;4.324;2022-11-20T13:55:01;5.20;;;2.77;;
22435;SDS011;11385;50.822;4.324;2022-11-20T14:00:12;7.12;;;2.80;;
22435;SDS011;11385;50.822;4.324;2022-11-20T14:02:42;5.85;;;2.52;;
22435;SDS011;11385;50.822;4.324;2022-11-20T14:05:17;5.53;;;2.47;;
22435;SDS011;11385;50.822;4.324;2022-11-20T14:07:45;6.25;;;3.33;;
22435;SDS011;11385;50.822;4.324;2022-11-20T14:12:50;6.28;;;3.20;;
22435;SDS011;11385;50.822;4.324;2022-11-20T14:17:52;4.95;;;2.40;;
22435;SDS011;11385;50.822;4.324;2022-11-20T14:20:18;5.92;;;3.02;;
22435;SDS011;11385;50.822;4.324;2022-11-20T14:22:49;4.20;;;2.35;;
22435;SDS011;11385;50.822;4.324;2022-11-20T14:25:20;5.72;;;3.02;;
22435;SDS011;11385;50.822;4.324;2022-11-20T14:27:51;6.20;;;2.70;;
22435;SDS011;11385;50.822;4.324;2022-11-20T14:30:23;5.15;;;2.60;;
22435;SDS011;11385;50.822;4.324;2022-11-20T14:32:54;4.10;;;2.25;;
22435;SDS011;11385;50.822;4.324;2022-11-20T14:35:24;5.03;;;3.00;;
22435;SDS011;11385;50.822;4.324;2022-11-20T14:37:52;6.53;;;2.70;;
22435;SDS011;11385;50.822;4.324;2022-11-20T14:40:23;6.20;;;2.75;;
22435;SDS011;11385;50.822;4.324;2022-11-20T14:42:53;4.62;;;2.70;;
22435;SDS011;11385;50.822;4.324;2022-11-20T14:45:20;4.97;;;2.90;;
22435;SDS011;11385;50.822;4.324;2022-11-20T14:47:48;6.72;;;3.22;;
22435;SDS011;11385;50.822;4.324;2022-11-20T14:50:23;5.75;;;2.95;;
22435;SDS011;11385;50.822;4.324;2022-11-20T14:52:52;5.15;;;3.25;;
22435;SDS011;11385;50.822;4.324;2022-11-20T14:55:26;6.17;;;3.27;;
22435;SDS011;11385;50.822;4.324;2022-11-20T14:58:00;5.05;;;2.55;;
22435;SDS011;11385;50.822;4.324;2022-11-20T15:00:29;6.87;;;2.40;;
22435;SDS011;11385;50.822;4.324;2022-11-20T15:02:57;7.75;;;3.25;;
22435;SDS011;11385;50.822;4.324;2022-11-20T15:05:26;7.05;;;2.70;;
22435;SDS011;11385;50.822;4.324;2022-11-20T15:08:10;4.45;;;2.10;;
22435;SDS011;11385;50.822;4.324;2022-11-20T15:10:38;5.65;;;2.15;;
22435;SDS011;11385;50.822;4.324;2022-11-20T15:13:12;3.72;;;2.58;;
22435;SDS011;11385;50.822;4.324;2022-11-20T15:15:46;4.65;;;2.58;;
22435;SDS011;11385;50.822;4.324;2022-11-20T15:18:24;5.40;;;2.60;;
22435;SDS011;11385;50.822;4.324;2022-11-20T15:20:55;6.05;;;2.92;;
22435;SDS011;11385;50.822;4.324;2022-11-20T15:23:25;4.75;;;2.67;;
22435;SDS011;11385;50.822;4.324;2022-11-20T15:25:53;4.15;;;2.67;;
22435;SDS011;11385;50.822;4.324;2022-11-20T15:28:21;7.55;;;2.87;;
22435;SDS011;11385;50.822;4.324;2022-11-20T15:30:51;7.28;;;5.20;;
22435;SDS011;11385;50.822;4.324;2022-11-20T15:33:19;8.73;;;3.95;;
22435;SDS011;11385;50.822;4.324;2022-11-20T15:35:45;11.28;;;3.98;;
22435;SDS011;11385;50.822;4.324;2022-11-20T15:38:12;10.40;;;3.58;;
22435;SDS011;11385;50.822;4.324;2022-11-20T15:40:39;7.22;;;3.67;;
22435;SDS011;11385;50.822;4.324;2022-11-20T15:43:05;10.85;;;3.90;;
22435;SDS011;11385;50.822;4.324;2022-11-20T15:45:41;12.15;;;4.45;;